Walnut City, Iowa
Current Conditions -  °F | °C
As of 5:35 AM on Friday 24 Oct 2014 (Local Time) from KTVK Reporting Station
Haze Haze  
Wind Chill: 55°   Ceiling: 100
Heat Index: 55°   Visibility: 0.75mi
Dew Point: 55°   Wind: 5mph
Humidity: 100%   Direction: 190°S
Pressure: 30.06"   Gusts: NA
Location:  40.8017°N, 92.9289°W
Report Text: KTVK 241035Z AUTO 19004KT 3/4SM BR OVC001 13/13 A3006 RMK AO2
Loading
Personal Weather Stations






























Interactive Weather Map
Tropical Storm Tracking
New forecast layout! Learn more

10-Day Weather Forecast

Advertisements
Track Severe Weather on mobile